YV3136 SVMG-SVTC
Flight info
| Callsign | YV3136 |
|---|---|
| Flight time | 0h 59m |
| Altitude | 9500 |
| Route | DCT |
| Aircraft | PA31/L-SD/S |
Departure
| Time | 2026-04-25 18:17 |
|---|---|
| Airport | Del Caribe Santiago Mariño International Airport (SVMG) |
Arrival
| Time | 2026-04-25 19:16 |
|---|---|
| Airport | Tucupita Airport (SVTC) |
| Time | Latitude | Longitude | Altitude | Speed | Heading |
|---|---|---|---|---|---|
| 2026-04-25 18:11 | 10.91683 | -63.96452 | 60 ft | 0 kts | 75° |
| 2026-04-25 18:14 | 10.91492 | -63.96438 | 59 ft | 18 kts | 205° |
| 2026-04-25 18:14 | 10.91456 | -63.96556 | 59 ft | 16 kts | 259° |
| 2026-04-25 18:14 | 10.91425 | -63.96704 | 59 ft | 20 kts | 255° |
| 2026-04-25 18:14 | 10.91390 | -63.96875 | 59 ft | 27 kts | 261° |
| 2026-04-25 18:15 | 10.91359 | -63.97034 | 59 ft | 20 kts | 261° |
| 2026-04-25 18:15 | 10.91322 | -63.97157 | 59 ft | 16 kts | 196° |
| 2026-04-25 18:15 | 10.91304 | -63.97155 | 59 ft | 0 kts | 151° |
| 2026-04-25 18:15 | 10.91299 | -63.97152 | 59 ft | 4 kts | 152° |
| 2026-04-25 18:16 | 10.91248 | -63.97132 | 59 ft | 11 kts | 165° |
| 2026-04-25 18:16 | 10.91176 | -63.97080 | 59 ft | 3 kts | 77° |
| 2026-04-25 18:16 | 10.91306 | -63.96427 | 121 ft | 97 kts | 78° |
| 2026-04-25 18:17 | 10.91455 | -63.95758 | 388 ft | 101 kts | 75° |
| 2026-04-25 18:17 | 10.91647 | -63.95066 | 653 ft | 106 kts | 75° |
| 2026-04-25 18:17 | 10.91677 | -63.94303 | 881 ft | 112 kts | 108° |
| 2026-04-25 18:17 | 10.91172 | -63.93685 | 1057 ft | 120 kts | 140° |
| 2026-04-25 18:18 | 10.90572 | -63.93133 | 1375 ft | 113 kts | 128° |
| 2026-04-25 18:18 | 10.90091 | -63.92479 | 1586 ft | 118 kts | 123° |
| 2026-04-25 18:18 | 10.89589 | -63.91825 | 1870 ft | 116 kts | 130° |
| 2026-04-25 18:18 | 10.89012 | -63.91246 | 2132 ft | 118 kts | 133° |
| 2026-04-25 18:19 | 10.88407 | -63.90637 | 2364 ft | 126 kts | 133° |
| 2026-04-25 18:19 | 10.87776 | -63.89996 | 2625 ft | 131 kts | 133° |
| 2026-04-25 18:19 | 10.87120 | -63.89333 | 2895 ft | 134 kts | 132° |
| 2026-04-25 18:19 | 10.86457 | -63.88666 | 3169 ft | 135 kts | 133° |
| 2026-04-25 18:20 | 10.85779 | -63.87975 | 3413 ft | 139 kts | 132° |
| 2026-04-25 18:20 | 10.85097 | -63.87280 | 3663 ft | 141 kts | 132° |
| 2026-04-25 18:20 | 10.84389 | -63.86558 | 3923 ft | 144 kts | 132° |
| 2026-04-25 18:20 | 10.83679 | -63.85835 | 4196 ft | 145 kts | 133° |
| 2026-04-25 18:21 | 10.82970 | -63.85114 | 4472 ft | 146 kts | 132° |
| 2026-04-25 18:21 | 10.82244 | -63.84374 | 4754 ft | 147 kts | 132° |
| 2026-04-25 18:21 | 10.81527 | -63.83646 | 5034 ft | 147 kts | 133° |
| 2026-04-25 18:21 | 10.80801 | -63.82910 | 5311 ft | 147 kts | 133° |
| 2026-04-25 18:22 | 10.80080 | -63.82177 | 5585 ft | 147 kts | 133° |
| 2026-04-25 18:22 | 10.79834 | -63.81927 | 5681 ft | 147 kts | 133° |
| 2026-04-25 18:22 | 10.78712 | -63.80785 | 6112 ft | 147 kts | 133° |
| 2026-04-25 18:22 | 10.77991 | -63.80053 | 6389 ft | 147 kts | 133° |
| 2026-04-25 18:23 | 10.77270 | -63.79320 | 6661 ft | 147 kts | 133° |
| 2026-04-25 18:23 | 10.76546 | -63.78585 | 6928 ft | 148 kts | 133° |
| 2026-04-25 18:23 | 10.75824 | -63.77846 | 7200 ft | 148 kts | 133° |
| 2026-04-25 18:23 | 10.75090 | -63.77104 | 7476 ft | 148 kts | 133° |
| 2026-04-25 18:24 | 10.74371 | -63.76372 | 7751 ft | 148 kts | 133° |
| 2026-04-25 18:24 | 10.73644 | -63.75629 | 8029 ft | 148 kts | 133° |
| 2026-04-25 18:24 | 10.72918 | -63.74891 | 8302 ft | 148 kts | 133° |
| 2026-04-25 18:24 | 10.72183 | -63.74146 | 8569 ft | 148 kts | 133° |
| 2026-04-25 18:25 | 10.71457 | -63.73409 | 8830 ft | 147 kts | 133° |
| 2026-04-25 18:25 | 10.70733 | -63.72675 | 9098 ft | 147 kts | 133° |
| 2026-04-25 18:25 | 10.70006 | -63.71934 | 9346 ft | 149 kts | 133° |
| 2026-04-25 18:25 | 10.69236 | -63.71148 | 9389 ft | 163 kts | 133° |
| 2026-04-25 18:26 | 10.68410 | -63.70304 | 9384 ft | 174 kts | 133° |
| 2026-04-25 18:26 | 10.67550 | -63.69428 | 9381 ft | 174 kts | 133° |
| 2026-04-25 18:26 | 10.66689 | -63.68560 | 9376 ft | 172 kts | 133° |
| 2026-04-25 18:26 | 10.65851 | -63.67712 | 9377 ft | 171 kts | 133° |
| 2026-04-25 18:27 | 10.65011 | -63.66856 | 9384 ft | 171 kts | 133° |
| 2026-04-25 18:27 | 10.64164 | -63.65990 | 9387 ft | 171 kts | 133° |
| 2026-04-25 18:27 | 10.63309 | -63.65126 | 9379 ft | 172 kts | 133° |
| 2026-04-25 18:27 | 10.62458 | -63.64264 | 9379 ft | 172 kts | 133° |
| 2026-04-25 18:28 | 10.61612 | -63.63406 | 9386 ft | 172 kts | 133° |
| 2026-04-25 18:28 | 10.60765 | -63.62542 | 9377 ft | 173 kts | 133° |
| 2026-04-25 18:28 | 10.59914 | -63.61680 | 9381 ft | 173 kts | 133° |
| 2026-04-25 18:29 | 10.58194 | -63.59933 | 9384 ft | 174 kts | 133° |
| 2026-04-25 18:29 | 10.57341 | -63.59066 | 9387 ft | 174 kts | 133° |
| 2026-04-25 18:30 | 10.54734 | -63.56423 | 9391 ft | 177 kts | 133° |
| 2026-04-25 18:30 | 10.53857 | -63.55531 | 9390 ft | 178 kts | 133° |
| 2026-04-25 18:30 | 10.52977 | -63.54634 | 9390 ft | 179 kts | 133° |
| 2026-04-25 18:30 | 10.52090 | -63.53736 | 9391 ft | 181 kts | 133° |
| 2026-04-25 18:31 | 10.51198 | -63.52831 | 9373 ft | 181 kts | 133° |
| 2026-04-25 18:31 | 10.50310 | -63.51935 | 9383 ft | 181 kts | 133° |
| 2026-04-25 18:31 | 10.49420 | -63.51023 | 9382 ft | 181 kts | 133° |
| 2026-04-25 18:31 | 10.48526 | -63.50120 | 9398 ft | 181 kts | 133° |
| 2026-04-25 18:32 | 10.47628 | -63.49206 | 9403 ft | 182 kts | 133° |
| 2026-04-25 18:32 | 10.46729 | -63.48297 | 9409 ft | 182 kts | 133° |
| 2026-04-25 18:32 | 10.45833 | -63.47384 | 9421 ft | 182 kts | 133° |
| 2026-04-25 18:32 | 10.44929 | -63.46475 | 9423 ft | 182 kts | 133° |
| 2026-04-25 18:33 | 10.44038 | -63.45571 | 9431 ft | 182 kts | 133° |
| 2026-04-25 18:33 | 10.43140 | -63.44658 | 9429 ft | 183 kts | 133° |
| 2026-04-25 18:33 | 10.42233 | -63.43740 | 9440 ft | 183 kts | 133° |
| 2026-04-25 18:33 | 10.41334 | -63.42829 | 9442 ft | 183 kts | 133° |
| 2026-04-25 18:34 | 10.40429 | -63.41914 | 9445 ft | 183 kts | 133° |
| 2026-04-25 18:34 | 10.39513 | -63.40986 | 9442 ft | 184 kts | 133° |
| 2026-04-25 18:34 | 10.38610 | -63.40070 | 9442 ft | 183 kts | 133° |
| 2026-04-25 18:34 | 10.37715 | -63.39160 | 9448 ft | 183 kts | 133° |
| 2026-04-25 18:35 | 10.36806 | -63.38242 | 9451 ft | 183 kts | 133° |
| 2026-04-25 18:35 | 10.35896 | -63.37318 | 9445 ft | 184 kts | 133° |
| 2026-04-25 18:35 | 10.34992 | -63.36403 | 9442 ft | 183 kts | 133° |
| 2026-04-25 18:35 | 10.34094 | -63.35494 | 9440 ft | 183 kts | 133° |
| 2026-04-25 18:36 | 10.33192 | -63.34581 | 9445 ft | 183 kts | 133° |
| 2026-04-25 18:36 | 10.32275 | -63.33653 | 9439 ft | 184 kts | 133° |
| 2026-04-25 18:36 | 10.31367 | -63.32733 | 9434 ft | 183 kts | 133° |
| 2026-04-25 18:36 | 10.30465 | -63.31823 | 9436 ft | 183 kts | 133° |
| 2026-04-25 18:37 | 10.29558 | -63.30902 | 9429 ft | 183 kts | 133° |
| 2026-04-25 18:37 | 10.28657 | -63.29990 | 9429 ft | 183 kts | 133° |
| 2026-04-25 18:37 | 10.27757 | -63.29078 | 9428 ft | 183 kts | 133° |
| 2026-04-25 18:37 | 10.26854 | -63.28166 | 9418 ft | 182 kts | 133° |
| 2026-04-25 18:38 | 10.25953 | -63.27258 | 9419 ft | 181 kts | 133° |
| 2026-04-25 18:38 | 10.25053 | -63.26343 | 9431 ft | 181 kts | 133° |
| 2026-04-25 18:38 | 10.24157 | -63.25433 | 9417 ft | 182 kts | 133° |
| 2026-04-25 18:38 | 10.23255 | -63.24522 | 9415 ft | 183 kts | 133° |
| 2026-04-25 18:39 | 10.22355 | -63.23609 | 9413 ft | 183 kts | 133° |
| 2026-04-25 18:39 | 10.21448 | -63.22693 | 9414 ft | 183 kts | 134° |
| 2026-04-25 18:39 | 10.20538 | -63.21772 | 9412 ft | 184 kts | 134° |
| 2026-04-25 18:39 | 10.19639 | -63.20864 | 9416 ft | 183 kts | 133° |
| 2026-04-25 18:40 | 10.18729 | -63.19946 | 9415 ft | 184 kts | 133° |
| 2026-04-25 18:40 | 10.17825 | -63.19029 | 9413 ft | 183 kts | 133° |
| 2026-04-25 18:40 | 10.16914 | -63.18112 | 9408 ft | 183 kts | 133° |
| 2026-04-25 18:40 | 10.16008 | -63.17193 | 9408 ft | 182 kts | 133° |
| 2026-04-25 18:41 | 10.15115 | -63.16291 | 9411 ft | 182 kts | 133° |
| 2026-04-25 18:41 | 10.14211 | -63.15375 | 9411 ft | 183 kts | 133° |
| 2026-04-25 18:41 | 10.13306 | -63.14462 | 9401 ft | 183 kts | 133° |
| 2026-04-25 18:41 | 10.12408 | -63.13554 | 9397 ft | 182 kts | 133° |
| 2026-04-25 18:42 | 10.11499 | -63.12634 | 9403 ft | 183 kts | 133° |
| 2026-04-25 18:42 | 10.11207 | -63.12340 | 9396 ft | 183 kts | 133° |
| 2026-04-25 18:42 | 10.09695 | -63.10809 | 9390 ft | 184 kts | 133° |
| 2026-04-25 18:42 | 10.08786 | -63.09891 | 9380 ft | 184 kts | 134° |
| 2026-04-25 18:43 | 10.07875 | -63.08969 | 9379 ft | 183 kts | 133° |
| 2026-04-25 18:43 | 10.06972 | -63.08060 | 9376 ft | 183 kts | 133° |
| 2026-04-25 18:43 | 10.06063 | -63.07143 | 9384 ft | 183 kts | 133° |
| 2026-04-25 18:43 | 10.05158 | -63.06231 | 9384 ft | 183 kts | 133° |
| 2026-04-25 18:44 | 10.04254 | -63.05317 | 9375 ft | 184 kts | 133° |
| 2026-04-25 18:44 | 10.03346 | -63.04400 | 9370 ft | 183 kts | 133° |
| 2026-04-25 18:44 | 10.02441 | -63.03487 | 9370 ft | 183 kts | 133° |
| 2026-04-25 18:44 | 10.01545 | -63.02581 | 9364 ft | 183 kts | 133° |
| 2026-04-25 18:45 | 10.00640 | -63.01664 | 9363 ft | 182 kts | 133° |
| 2026-04-25 18:45 | 9.99744 | -63.00762 | 9363 ft | 182 kts | 134° |
| 2026-04-25 18:45 | 9.98845 | -62.99851 | 9365 ft | 183 kts | 133° |
| 2026-04-25 18:45 | 9.97935 | -62.98935 | 9364 ft | 182 kts | 133° |
| 2026-04-25 18:46 | 9.97029 | -62.98019 | 9361 ft | 183 kts | 133° |
| 2026-04-25 18:46 | 9.96136 | -62.97118 | 9360 ft | 183 kts | 133° |
| 2026-04-25 18:46 | 9.95227 | -62.96203 | 9357 ft | 183 kts | 133° |
| 2026-04-25 18:46 | 9.94319 | -62.95288 | 9362 ft | 183 kts | 133° |
| 2026-04-25 18:47 | 9.93423 | -62.94384 | 9363 ft | 182 kts | 133° |
| 2026-04-25 18:47 | 9.92522 | -62.93477 | 9362 ft | 182 kts | 133° |
| 2026-04-25 18:47 | 9.91621 | -62.92568 | 9367 ft | 182 kts | 133° |
| 2026-04-25 18:47 | 9.90719 | -62.91656 | 9364 ft | 182 kts | 133° |
| 2026-04-25 18:48 | 9.89828 | -62.90755 | 9359 ft | 181 kts | 133° |
| 2026-04-25 18:48 | 9.88931 | -62.89852 | 9363 ft | 181 kts | 133° |
| 2026-04-25 18:48 | 9.88028 | -62.88940 | 9364 ft | 181 kts | 133° |
| 2026-04-25 18:48 | 9.87133 | -62.88035 | 9360 ft | 181 kts | 133° |
| 2026-04-25 18:49 | 9.86243 | -62.87139 | 9357 ft | 181 kts | 133° |
| 2026-04-25 18:49 | 9.85339 | -62.86227 | 9359 ft | 181 kts | 133° |
| 2026-04-25 18:49 | 9.84440 | -62.85320 | 9357 ft | 181 kts | 133° |
| 2026-04-25 18:49 | 9.83551 | -62.84425 | 9364 ft | 181 kts | 133° |
| 2026-04-25 18:50 | 9.82649 | -62.83516 | 9364 ft | 182 kts | 133° |
| 2026-04-25 18:50 | 9.81754 | -62.82617 | 9365 ft | 182 kts | 133° |
| 2026-04-25 18:50 | 9.80852 | -62.81706 | 9363 ft | 182 kts | 133° |
| 2026-04-25 18:50 | 9.79947 | -62.80796 | 9358 ft | 181 kts | 133° |
| 2026-04-25 18:51 | 9.79059 | -62.79900 | 9367 ft | 181 kts | 133° |
| 2026-04-25 18:51 | 9.78755 | -62.79593 | 9366 ft | 181 kts | 133° |
| 2026-04-25 18:51 | 9.77262 | -62.78088 | 9360 ft | 181 kts | 133° |
| 2026-04-25 18:51 | 9.76366 | -62.77184 | 9353 ft | 181 kts | 133° |
| 2026-04-25 18:52 | 9.75469 | -62.76280 | 9357 ft | 181 kts | 133° |
| 2026-04-25 18:52 | 9.74574 | -62.75378 | 9354 ft | 181 kts | 133° |
| 2026-04-25 18:52 | 9.73672 | -62.74469 | 9355 ft | 181 kts | 133° |
| 2026-04-25 18:52 | 9.72780 | -62.73573 | 9345 ft | 181 kts | 133° |
| 2026-04-25 18:53 | 9.71884 | -62.72671 | 9350 ft | 181 kts | 133° |
| 2026-04-25 18:53 | 9.70985 | -62.71769 | 9354 ft | 181 kts | 133° |
| 2026-04-25 18:53 | 9.70087 | -62.70864 | 9355 ft | 181 kts | 133° |
| 2026-04-25 18:53 | 9.69194 | -62.69964 | 9356 ft | 181 kts | 133° |
| 2026-04-25 18:54 | 9.67394 | -62.68150 | 9355 ft | 181 kts | 133° |
| 2026-04-25 18:54 | 9.66497 | -62.67248 | 9358 ft | 181 kts | 133° |
| 2026-04-25 18:54 | 9.65599 | -62.66344 | 9358 ft | 181 kts | 133° |
| 2026-04-25 18:55 | 9.64709 | -62.65448 | 9356 ft | 181 kts | 133° |
| 2026-04-25 18:55 | 9.63808 | -62.64541 | 9359 ft | 181 kts | 133° |
| 2026-04-25 18:55 | 9.62915 | -62.63642 | 9358 ft | 181 kts | 133° |
| 2026-04-25 18:55 | 9.62010 | -62.62732 | 9354 ft | 181 kts | 133° |
| 2026-04-25 18:56 | 9.61110 | -62.61828 | 9354 ft | 181 kts | 133° |
| 2026-04-25 18:56 | 9.60221 | -62.60934 | 9349 ft | 181 kts | 133° |
| 2026-04-25 18:56 | 9.59325 | -62.60034 | 9347 ft | 181 kts | 133° |
| 2026-04-25 18:56 | 9.58733 | -62.59436 | 9346 ft | 181 kts | 133° |
| 2026-04-25 18:57 | 9.57532 | -62.58229 | 9350 ft | 181 kts | 133° |
| 2026-04-25 18:57 | 9.56640 | -62.57332 | 9348 ft | 181 kts | 133° |
| 2026-04-25 18:57 | 9.55749 | -62.56433 | 9348 ft | 181 kts | 133° |
| 2026-04-25 18:57 | 9.55448 | -62.56131 | 9349 ft | 181 kts | 133° |
| 2026-04-25 18:58 | 9.53958 | -62.54634 | 9341 ft | 181 kts | 133° |
| 2026-04-25 18:58 | 9.52161 | -62.52829 | 9347 ft | 181 kts | 133° |
| 2026-04-25 18:58 | 9.51260 | -62.51920 | 9342 ft | 181 kts | 133° |
| 2026-04-25 18:59 | 9.49471 | -62.50124 | 9345 ft | 182 kts | 133° |
| 2026-04-25 18:59 | 9.47664 | -62.48309 | 9339 ft | 181 kts | 133° |
| 2026-04-25 19:00 | 9.45873 | -62.46509 | 9338 ft | 181 kts | 133° |
| 2026-04-25 19:00 | 9.44979 | -62.45611 | 9339 ft | 181 kts | 133° |
| 2026-04-25 19:01 | 9.43187 | -62.43812 | 9338 ft | 179 kts | 133° |
| 2026-04-25 19:01 | 9.42316 | -62.42937 | 9332 ft | 173 kts | 133° |
| 2026-04-25 19:01 | 9.41463 | -62.42082 | 9222 ft | 174 kts | 133° |
| 2026-04-25 19:01 | 9.40588 | -62.41199 | 9027 ft | 179 kts | 133° |
| 2026-04-25 19:02 | 9.38786 | -62.39386 | 8662 ft | 183 kts | 133° |
| 2026-04-25 19:02 | 9.37878 | -62.38479 | 8477 ft | 183 kts | 133° |
| 2026-04-25 19:02 | 9.36968 | -62.37566 | 8307 ft | 183 kts | 133° |
| 2026-04-25 19:03 | 9.35764 | -62.36359 | 8068 ft | 182 kts | 133° |
| 2026-04-25 19:03 | 9.34680 | -62.35268 | 7854 ft | 180 kts | 133° |
| 2026-04-25 19:03 | 9.33789 | -62.34378 | 7673 ft | 179 kts | 133° |
| 2026-04-25 19:04 | 9.32022 | -62.32604 | 7330 ft | 177 kts | 133° |
| 2026-04-25 19:04 | 9.31143 | -62.31723 | 7162 ft | 176 kts | 133° |
| 2026-04-25 19:05 | 9.29421 | -62.29996 | 6798 ft | 173 kts | 133° |
| 2026-04-25 19:05 | 9.27726 | -62.28295 | 6433 ft | 170 kts | 133° |
| 2026-04-25 19:05 | 9.26890 | -62.27460 | 6251 ft | 169 kts | 133° |
| 2026-04-25 19:06 | 9.26052 | -62.26614 | 6080 ft | 168 kts | 133° |
| 2026-04-25 19:06 | 9.24421 | -62.24973 | 5725 ft | 164 kts | 134° |
| 2026-04-25 19:06 | 9.23600 | -62.24158 | 5549 ft | 163 kts | 133° |
| 2026-04-25 19:07 | 9.22006 | -62.22557 | 5184 ft | 159 kts | 132° |
| 2026-04-25 19:07 | 9.21219 | -62.21762 | 4995 ft | 156 kts | 131° |
| 2026-04-25 19:08 | 9.19700 | -62.20237 | 4611 ft | 151 kts | 131° |
| 2026-04-25 19:08 | 9.18958 | -62.19499 | 4416 ft | 149 kts | 131° |
| 2026-04-25 19:09 | 9.16846 | -62.17387 | 3811 ft | 135 kts | 130° |
| 2026-04-25 19:09 | 9.16623 | -62.17162 | 3740 ft | 134 kts | 130° |
| 2026-04-25 19:09 | 9.14679 | -62.15993 | 3113 ft | 125 kts | 150° |
| 2026-04-25 19:10 | 9.13793 | -62.15616 | 2909 ft | 145 kts | 150° |
| 2026-04-25 19:10 | 9.12817 | -62.15181 | 2721 ft | 160 kts | 155° |
| 2026-04-25 19:10 | 9.11667 | -62.15045 | 2596 ft | 166 kts | 172° |
| 2026-04-25 19:10 | 9.10530 | -62.14999 | 2578 ft | 160 kts | 171° |
| 2026-04-25 19:11 | 9.09425 | -62.14964 | 2549 ft | 156 kts | 172° |
| 2026-04-25 19:11 | 9.08400 | -62.14945 | 2510 ft | 133 kts | 173° |
| 2026-04-25 19:11 | 9.07550 | -62.14952 | 2385 ft | 111 kts | 174° |
| 2026-04-25 19:11 | 9.06815 | -62.14976 | 2164 ft | 103 kts | 173° |
| 2026-04-25 19:12 | 9.06097 | -62.15047 | 1934 ft | 106 kts | 189° |
| 2026-04-25 19:12 | 9.05435 | -62.15413 | 1693 ft | 113 kts | 221° |
| 2026-04-25 19:12 | 9.05124 | -62.16139 | 1471 ft | 112 kts | 266° |
| 2026-04-25 19:12 | 9.05320 | -62.16904 | 1291 ft | 119 kts | 308° |
| 2026-04-25 19:13 | 9.05977 | -62.17376 | 1140 ft | 114 kts | 352° |
| 2026-04-25 19:13 | 9.06717 | -62.17277 | 1039 ft | 103 kts | 33° |
| 2026-04-25 19:13 | 9.07109 | -62.16769 | 1051 ft | 90 kts | 88° |
| 2026-04-25 19:13 | 9.07026 | -62.16134 | 1064 ft | 90 kts | 97° |
| 2026-04-25 19:14 | 9.06930 | -62.15499 | 1047 ft | 94 kts | 92° |
| 2026-04-25 19:14 | 9.06913 | -62.15278 | 1010 ft | 97 kts | 91° |
| 2026-04-25 19:14 | 9.07048 | -62.14151 | 932 ft | 96 kts | 73° |
| 2026-04-25 19:14 | 9.07219 | -62.13491 | 814 ft | 98 kts | 76° |
| 2026-04-25 19:15 | 9.07380 | -62.12818 | 712 ft | 98 kts | 70° |
| 2026-04-25 19:15 | 9.07647 | -62.12181 | 621 ft | 98 kts | 65° |
| 2026-04-25 19:15 | 9.07930 | -62.11538 | 464 ft | 103 kts | 68° |
| 2026-04-25 19:15 | 9.08209 | -62.10902 | 273 ft | 94 kts | 64° |
| 2026-04-25 19:16 | 9.08483 | -62.10333 | 108 ft | 87 kts | 67° |
| 2026-04-25 19:16 | 9.08719 | -62.09805 | 27 ft | 73 kts | 66° |
| 2026-04-25 19:16 | 9.08904 | -62.09405 | 24 ft | 48 kts | 65° |
| 2026-04-25 19:16 | 9.08967 | -62.09251 | 24 ft | 4 kts | 68° |
| 2026-04-25 19:17 | 9.08963 | -62.09296 | 24 ft | 14 kts | 243° |
| 2026-04-25 19:17 | 9.08905 | -62.09416 | 24 ft | 22 kts | 245° |
| 2026-04-25 19:17 | 9.08834 | -62.09569 | 25 ft | 25 kts | 244° |
| 2026-04-25 19:17 | 9.08760 | -62.09745 | 25 ft | 28 kts | 247° |
| 2026-04-25 19:18 | 9.08665 | -62.09922 | 26 ft | 28 kts | 243° |
| 2026-04-25 19:18 | 9.08591 | -62.10033 | 26 ft | 9 kts | 211° |
| 2026-04-25 19:18 | 9.08546 | -62.10041 | 25 ft | 0 kts | 245° |